Time,TemperatureC,DewpointC,PressurehPa,WindDirection,WindDirectionDegrees,WindSpeedKMH,WindSpeedGustKMH,Humidity,HourlyPrecipMM,Conditions,Clouds,dailyrainMM,SolarRadiationWatts/m^2,UVIndex,SoftwareType,DateUTC
2021-04-11 00:04:54,11.7,10.5,1015.4,SE,144,5.3,2.9,93,0.0,,,5.6,,,n/a,2021-04-10T22:04:54Z
2021-04-11 00:09:56,11.6,10.5,1015.4,SE,144,4.8,4.3,93,0.0,,,5.6,,,n/a,2021-04-10T22:09:56Z
2021-04-11 00:14:58,11.6,10.5,1015.4,SE,139,5.3,4.3,93,0.0,,,5.6,,,n/a,2021-04-10T22:14:58Z
2021-04-11 00:19:59,11.6,10.4,1015.3,SE,132,4.9,3.1,92.9,0.0,,,5.6,,,n/a,2021-04-10T22:19:59Z
2021-04-11 00:24:49,11.5,10.4,1015.3,ESE,120,3.1,1.9,93,0.0,,,5.6,,,n/a,2021-04-10T22:24:49Z
2021-04-11 00:29:51,11.5,10.2,1015.4,SE,129,4.2,3.1,92,0.0,,,5.6,,,n/a,2021-04-10T22:29:51Z
2021-04-11 00:39:55,11.4,10.2,1015.3,SE,136,6,4,92.1,0.0,,,5.6,,,n/a,2021-04-10T22:39:55Z
2021-04-11 00:49:58,11.5,10.4,1015.3,SE,143,3.5,2.1,93,0.0,,,5.6,,,n/a,2021-04-10T22:49:58Z
2021-04-11 00:54:59,11.5,10.4,1015.4,SE,133,4.6,3.7,93,0.0,,,5.6,,,n/a,2021-04-10T22:54:59Z
2021-04-11 00:59:49,11.5,10.4,1015.4,SE,130,4.2,2.7,93,0.0,,,5.6,,,n/a,2021-04-10T22:59:49Z
2021-04-11 01:04:53,11.6,10.3,1015.3,SE,137,4.9,3.1,92.2,5.6,,,5.6,,,n/a,2021-04-10T23:04:53Z
2021-04-11 01:14:56,11.4,10.2,1015.2,SE,131,5.3,3.2,92,0.0,,,5.6,,,n/a,2021-04-10T23:14:56Z
2021-04-11 01:19:57,11.4,10.1,1015.1,SE,130,4.9,2.9,92,0.0,,,5.6,,,n/a,2021-04-10T23:19:57Z
2021-04-11 01:24:59,11.3,10,1015.1,SE,126,4.3,3.4,92,0.0,,,5.6,,,n/a,2021-04-10T23:24:59Z
2021-04-11 01:29:49,11.1,9.8,1015.1,ESE,118,2.4,1.8,92,0.0,,,5.6,,,n/a,2021-04-10T23:29:49Z
2021-04-11 01:34:50,10.9,9.7,1015.1,ESE,119,3.3,2.9,92,0.0,,,5.6,,,n/a,2021-04-10T23:34:50Z
2021-04-11 01:39:52,10.8,9.6,1015.1,ESE,118,4.9,3.9,92,0.0,,,5.6,,,n/a,2021-04-10T23:39:52Z
2021-04-11 01:44:53,10.7,9.5,1015.0,ESE,119,4.5,2.9,92,0.0,,,5.6,,,n/a,2021-04-10T23:44:53Z
2021-04-11 01:49:54,10.6,9.4,1014.9,ESE,109,4.6,3.4,92,0.0,,,5.6,,,n/a,2021-04-10T23:49:54Z
2021-04-11 01:54:56,10.6,9.4,1014.9,ESE,112,4,3.1,92.4,0.0,,,5.6,,,n/a,2021-04-10T23:54:56Z
2021-04-11 01:59:57,10.6,9.4,1014.8,ESE,109,3.7,2.6,93,0.0,,,5.6,,,n/a,2021-04-10T23:59:57Z
2021-04-11 02:04:49,10.6,9.4,1014.8,ESE,112,4.6,3.1,93,0.0,,,0.0,,,n/a,2021-04-11T00:04:49Z
2021-04-11 02:09:51,10.5,9.4,1014.8,ESE,114,3.7,2.4,93,0.0,,,0.0,,,n/a,2021-04-11T00:09:51Z
2021-04-11 02:14:41,10.4,9.3,1014.8,ESE,116,4.1,3.5,93,0.0,,,0.0,,,n/a,2021-04-11T00:14:41Z
2021-04-11 02:19:53,10.4,9.3,1014.8,ESE,113,5.3,4,93,0.0,,,0.0,,,n/a,2021-04-11T00:19:53Z
2021-04-11 02:24:55,10.4,9.3,1014.8,ESE,113,4.6,3.5,93,0.0,,,0.0,,,n/a,2021-04-11T00:24:55Z
2021-04-11 02:29:56,10.4,9.3,1014.7,ESE,109,3.4,3.1,93,0.0,,,0.0,,,n/a,2021-04-11T00:29:56Z
2021-04-11 02:34:57,10.4,9.3,1014.6,ESE,111,3.7,2.9,93,0.0,,,0.0,,,n/a,2021-04-11T00:34:57Z
2021-04-11 02:39:59,10.4,9.3,1014.7,ESE,110,2.4,2.3,93,0.0,,,0.0,,,n/a,2021-04-11T00:39:59Z
2021-04-11 02:49:50,10.3,9.2,1014.8,ESE,109,3.4,3.2,93,0.0,,,0.0,,,n/a,2021-04-11T00:49:50Z
2021-04-11 02:54:52,10.3,9.2,1014.8,ESE,110,3.7,2.9,93,0.0,,,0.0,,,n/a,2021-04-11T00:54:52Z
2021-04-11 02:59:53,10.3,9.3,1014.8,ESE,112,4.5,3.5,93.6,0.0,,,0.0,,,n/a,2021-04-11T00:59:53Z
2021-04-11 03:04:56,10.5,9.5,1014.7,ESE,106,3.1,2.6,94,0.0,,,0.0,,,n/a,2021-04-11T01:04:56Z
2021-04-11 03:09:59,10.6,9.7,1014.7,SE,134,0.8,0.6,94,0.0,,,0.0,,,n/a,2021-04-11T01:09:59Z
2021-04-11 03:14:49,10.7,9.7,1014.6,ESE,115,0.4,1,94,0.0,,,0.0,,,n/a,2021-04-11T01:14:49Z
2021-04-11 03:19:50,10.6,9.5,1014.5,ESE,106,2.1,1.6,93.2,0.0,,,0.0,,,n/a,2021-04-11T01:19:50Z
2021-04-11 03:24:51,10.5,9.5,1014.5,East,88,1.3,0.3,93.6,0.0,,,0.0,,,n/a,2021-04-11T01:24:51Z
2021-04-11 03:29:53,10.5,9.6,1014.4,ESE,110,2.5,2.9,94,0.0,,,0.0,,,n/a,2021-04-11T01:29:53Z
2021-04-11 03:34:54,10.4,9.4,1014.3,ESE,110,3.4,3.2,93.5,0.0,,,0.0,,,n/a,2021-04-11T01:34:54Z
2021-04-11 03:39:56,10.4,9.4,1014.3,ESE,111,5,4.2,94,0.0,,,0.0,,,n/a,2021-04-11T01:39:56Z
2021-04-11 03:44:57,10.4,9.4,1014.2,ESE,120,4.1,2.4,94,0.0,,,0.0,,,n/a,2021-04-11T01:44:57Z
2021-04-11 03:49:58,10.4,9.5,1014.1,ESE,111,3.7,3.1,94,0.0,,,0.0,,,n/a,2021-04-11T01:49:58Z
2021-04-11 03:54:59,10.5,9.5,1014.0,ESE,110,2.2,2.4,94,0.0,,,0.0,,,n/a,2021-04-11T01:54:59Z
2021-04-11 03:59:49,10.5,9.5,1014.1,ESE,116,0,0,93.7,0.0,,,0.0,,,n/a,2021-04-11T01:59:49Z
2021-04-11 04:04:53,10.3,9.3,1014.2,ESE,110,2.4,2.1,93.6,0.0,,,0.0,,,n/a,2021-04-11T02:04:53Z
2021-04-11 04:09:55,10.2,9.3,1014.2,ESE,114,2.3,2.7,94,0.0,,,0.0,,,n/a,2021-04-11T02:09:55Z
2021-04-11 04:14:56,10.1,9.2,1014.2,ESE,110,3.8,3.2,94,0.0,,,0.0,,,n/a,2021-04-11T02:14:56Z
2021-04-11 04:19:57,10.2,9.2,1014.2,ESE,114,4.1,3.2,94,0.0,,,0.0,,,n/a,2021-04-11T02:19:57Z
2021-04-11 04:24:58,10.2,9.3,1014.1,ESE,109,3.7,2.7,94,0.0,,,0.0,,,n/a,2021-04-11T02:24:58Z
2021-04-11 04:29:59,10.2,9.3,1014.1,ESE,114,2.3,2.1,94,0.0,,,0.0,,,n/a,2021-04-11T02:29:59Z
2021-04-11 04:34:50,10.2,9.3,1014.1,ESE,118,1.9,1.6,94,0.0,,,0.0,,,n/a,2021-04-11T02:34:50Z
2021-04-11 04:44:53,10.1,9.2,1014.3,ESE,111,3.7,2.4,94,0.0,,,0.0,,,n/a,2021-04-11T02:44:53Z
2021-04-11 04:49:54,10.1,9.1,1014.3,ESE,110,5.1,4.7,94,0.0,,,0.0,,,n/a,2021-04-11T02:49:54Z
2021-04-11 04:54:56,10.2,9.2,1014.2,ESE,111,4.5,3.9,94,0.0,,,0.0,,,n/a,2021-04-11T02:54:56Z
2021-04-11 04:59:57,10.2,9.2,1014.0,ESE,110,3,3.1,94,0.0,,,0.0,,,n/a,2021-04-11T02:59:57Z
2021-04-11 05:04:49,10.2,9.3,1014.0,ESE,114,2.3,1.8,94,0.0,,,0.0,,,n/a,2021-04-11T03:04:49Z
2021-04-11 05:09:51,10.1,9.2,1014.1,ESE,112,3.4,2.7,94,0.0,,,0.0,,,n/a,2021-04-11T03:09:51Z
2021-04-11 05:14:52,10,9.1,1014.1,ESE,110,4.9,3.9,94,0.0,,,0.0,,,n/a,2021-04-11T03:14:52Z
2021-04-11 05:19:53,10,9.1,1014.2,ESE,106,4.2,3.2,94,0.0,,,0.0,,,n/a,2021-04-11T03:19:53Z
2021-04-11 05:24:55,10.1,9.1,1014.1,ESE,107,3.7,2.6,94,0.0,,,0.0,,,n/a,2021-04-11T03:24:55Z
2021-04-11 05:29:56,10.1,9.1,1014.2,ESE,106,2.5,2.4,94,0.0,,,0.0,,,n/a,2021-04-11T03:29:56Z
2021-04-11 05:34:57,10.1,9.2,1014.2,ESE,114,5.3,4.5,94.2,0.0,,,0.0,,,n/a,2021-04-11T03:34:57Z
2021-04-11 05:39:59,10,9.1,1014.3,ESE,113,3.3,3.1,94,0.0,,,0.0,,,n/a,2021-04-11T03:39:59Z
2021-04-11 05:44:49,10.1,9.2,1014.3,ESE,109,4.3,4.5,94.6,0.0,,,0.0,,,n/a,2021-04-11T03:44:49Z
2021-04-11 05:49:50,10.2,9.4,1014.4,ESE,108,4.9,4.3,95,0.0,,,0.0,,,n/a,2021-04-11T03:49:50Z
2021-04-11 05:54:52,10.4,9.6,1014.3,ESE,110,2.7,1.4,95,0.0,,,0.0,,,n/a,2021-04-11T03:54:52Z
2021-04-11 05:59:53,10.5,9.7,1014.3,ESE,109,0.1,0.2,95,0.0,,,0.0,,,n/a,2021-04-11T03:59:53Z
2021-04-11 06:04:56,10.5,9.6,1014.3,SE,133,1.7,1.6,94.5,0.0,,,0.0,,,n/a,2021-04-11T04:04:56Z
2021-04-11 06:09:58,10.5,9.6,1014.3,ESE,112,1.9,1.4,94.9,0.0,,,0.0,,,n/a,2021-04-11T04:09:58Z
2021-04-11 06:14:59,10.5,9.7,1014.3,ESE,113,2.3,1.8,95,0.0,,,0.0,,,n/a,2021-04-11T04:14:59Z
2021-04-11 06:19:49,10.5,9.8,1014.3,ESE,108,2.7,2.6,95,0.0,,,0.0,,,n/a,2021-04-11T04:19:49Z
2021-04-11 06:24:51,10.5,9.7,1014.3,ESE,113,2.3,1.8,94.8,0.0,,,0.0,,,n/a,2021-04-11T04:24:51Z
2021-04-11 06:29:52,10.5,9.5,1014.3,ESE,118,1.5,1.9,94,0.0,,,0.0,,,n/a,2021-04-11T04:29:52Z
2021-04-11 06:34:53,10.4,9.4,1014.3,ESE,111,3.7,3.1,94,0.0,,,0.0,,,n/a,2021-04-11T04:34:53Z
2021-04-11 06:39:55,10.2,9.3,1014.4,ESE,110,3.7,3.1,94,0.0,,,0.0,,,n/a,2021-04-11T04:39:55Z
2021-04-11 06:44:57,10.1,9.2,1014.4,ESE,111,4.6,2.7,94,0.0,,,0.0,,,n/a,2021-04-11T04:44:57Z
2021-04-11 06:49:58,10.1,9.2,1014.5,ESE,108,3.1,2.1,94.3,0.0,,,0.0,,,n/a,2021-04-11T04:49:58Z
2021-04-11 06:54:59,10.2,9.4,1014.5,ESE,116,4,2.4,95,0.0,,,0.0,,,n/a,2021-04-11T04:54:59Z
2021-04-11 06:59:49,10.3,9.5,1014.5,ESE,109,3.7,2.9,95,0.0,,,0.0,,,n/a,2021-04-11T04:59:49Z
2021-04-11 07:04:52,10.4,9.6,1014.5,ESE,115,1.9,1.6,95,0.0,,,0.0,,,n/a,2021-04-11T05:04:52Z
2021-04-11 07:09:54,10.4,9.6,1014.5,ESE,113,1.6,1.4,95,0.0,,,0.0,,,n/a,2021-04-11T05:09:54Z
2021-04-11 07:14:55,10.4,9.7,1014.5,ESE,111,2.4,2.6,95,0.0,,,0.0,,,n/a,2021-04-11T05:14:55Z
2021-04-11 07:19:56,10.4,9.6,1014.5,ESE,118,2.2,2.6,94.7,0.0,,,0.0,,,n/a,2021-04-11T05:19:56Z
2021-04-11 07:24:57,10.3,9.4,1014.6,ESE,113,2.8,2.6,94.1,0.0,,,0.0,,,n/a,2021-04-11T05:24:57Z
2021-04-11 07:29:58,10.3,9.5,1014.7,ESE,111,3.5,2.7,95,0.0,,,0.0,,,n/a,2021-04-11T05:29:58Z
2021-04-11 07:34:49,10.3,9.5,1014.7,ESE,110,2.3,1.9,95,0.0,,,0.0,,,n/a,2021-04-11T05:34:49Z
2021-04-11 07:44:52,10.5,9.7,1014.8,ESE,113,3.3,1.9,95,0.0,,,0.0,,,n/a,2021-04-11T05:44:52Z
2021-04-11 07:49:53,10.6,9.8,1014.8,ESE,110,3.1,1.9,95,0.0,,,0.0,,,n/a,2021-04-11T05:49:53Z
2021-04-11 07:54:55,10.7,9.9,1014.8,ESE,117,3.4,2.4,95,0.0,,,0.0,,,n/a,2021-04-11T05:54:55Z
2021-04-11 07:59:56,10.8,10.1,1014.8,SE,127,2.7,1.8,95,0.0,,,0.0,,,n/a,2021-04-11T05:59:56Z
2021-04-11 08:04:59,11,10.2,1014.8,SE,137,3.7,2.1,95,0.0,,,0.0,,,n/a,2021-04-11T06:04:59Z
2021-04-11 08:09:39,11,10.3,1014.8,SE,133,3.1,1.8,95,0.0,,,0.0,,,n/a,2021-04-11T06:09:39Z
2021-04-11 08:14:51,11.1,10.3,1014.8,ESE,123,2.7,1.8,95,0.0,,,0.0,,,n/a,2021-04-11T06:14:51Z
2021-04-11 08:19:52,11.1,10.3,1014.8,SE,125,2.3,1.6,95,0.0,,,0.0,,,n/a,2021-04-11T06:19:52Z
2021-04-11 08:24:53,11,10.2,1014.8,SE,135,2.5,2.6,95,0.0,,,0.0,,,n/a,2021-04-11T06:24:53Z
2021-04-11 08:29:54,11,10.3,1014.9,SE,125,2.4,3.5,95,0.0,,,0.0,,,n/a,2021-04-11T06:29:54Z
2021-04-11 08:34:56,11.2,10.4,1014.9,ESE,115,6.1,4.5,95,0.0,,,0.0,,,n/a,2021-04-11T06:34:56Z
2021-04-11 08:39:57,11.3,10.5,1014.9,ESE,116,6.7,6.8,95,0.0,,,0.0,,,n/a,2021-04-11T06:39:57Z
2021-04-11 08:44:59,11.5,10.7,1014.9,SSE,162,3.4,2.1,95,0.0,,,0.0,,,n/a,2021-04-11T06:44:59Z
2021-04-11 08:49:48,11.6,10.9,1014.9,SE,140,4.8,6.9,95,0.0,,,0.0,,,n/a,2021-04-11T06:49:48Z
2021-04-11 08:54:50,11.9,11.1,1014.7,SE,128,8.6,7.1,95,0.0,,,0.0,,,n/a,2021-04-11T06:54:50Z
2021-04-11 08:59:51,12.2,11.4,1014.7,SE,139,4.2,3.1,95,0.0,,,0.0,,,n/a,2021-04-11T06:59:51Z
2021-04-11 09:04:54,12.3,11.4,1014.8,SSE,151,8.5,7.7,94.7,0.0,,,0.0,,,n/a,2021-04-11T07:04:54Z
2021-04-11 09:09:56,12.4,11.4,1014.8,SE,141,5.7,5.3,94,0.0,,,0.0,,,n/a,2021-04-11T07:09:56Z
2021-04-11 09:14:47,12.5,11.6,1014.8,SE,134,4.3,3.5,94,0.0,,,0.0,,,n/a,2021-04-11T07:14:47Z
2021-04-11 09:19:59,12.6,11.7,1014.9,SSW,192,2.3,1.8,94,0.0,,,0.0,,,n/a,2021-04-11T07:19:59Z
2021-04-11 09:24:49,12.8,11.9,1014.8,ESE,118,0.6,0.2,94,0.0,,,0.0,,,n/a,2021-04-11T07:24:49Z
2021-04-11 09:29:50,13,12,1014.8,SSE,147,0.5,0.3,93.8,0.0,,,0.0,,,n/a,2021-04-11T07:29:50Z
2021-04-11 09:34:52,13.1,12,1014.9,North,0,0.8,0.6,93,0.0,,,0.0,,,n/a,2021-04-11T07:34:52Z
2021-04-11 09:39:54,13.2,12,1014.9,East,89,1.6,0.6,93,0.0,,,0.0,,,n/a,2021-04-11T07:39:54Z
2021-04-11 09:44:55,13.2,12,1014.9,ESE,106,5.7,6.3,92.2,0.0,,,0.0,,,n/a,2021-04-11T07:44:55Z
2021-04-11 09:49:56,13.3,12,1015.0,SE,133,1.6,1.4,92,0.0,,,0.0,,,n/a,2021-04-11T07:49:56Z
2021-04-11 09:54:57,13.5,12.2,1015.0,SE,130,2.8,2.6,91.6,0.0,,,0.0,,,n/a,2021-04-11T07:54:57Z
2021-04-11 09:59:58,13.7,12.3,1015.1,ENE,75,4.4,5,91,0.0,,,0.0,,,n/a,2021-04-11T07:59:58Z
2021-04-11 10:04:50,13.8,12.2,1015.1,ESE,116,1.5,3.5,90,0.0,,,0.0,,,n/a,2021-04-11T08:04:50Z
2021-04-11 10:07:04,14,12.4,1015.1,ESE,113,1.9,0.5,90,0.0,,,0.0,,,n/a,2021-04-11T08:07:04Z
2021-04-11 10:14:53,14.6,12.7,1015.0,ESE,121,4.6,1.9,88.5,0.0,,,0.0,,,n/a,2021-04-11T08:14:53Z
2021-04-11 10:19:54,14.8,12.8,1015.0,ESE,113,6.9,5.3,87.7,0.0,,,0.0,,,n/a,2021-04-11T08:19:54Z
2021-04-11 10:24:55,15.2,12.9,1015.0,ESE,117,7.5,4.8,86.2,0.0,,,0.0,,,n/a,2021-04-11T08:24:55Z
2021-04-11 10:28:27,15.5,13.1,1015.0,ESE,118,5,6.1,85.3,0.0,,,0.0,,,n/a,2021-04-11T08:28:27Z
2021-04-11 11:19:49,15.7,12.3,1015.5,North,350,4.1,3.1,80.4,0.0,,,0.0,,,n/a,2021-04-11T09:19:49Z
2021-04-11 11:24:51,15.5,12,1015.6,WNW,296,3,1.3,79.8,0.0,,,0.0,,,n/a,2021-04-11T09:24:51Z
2021-04-11 11:29:52,15.5,12.1,1015.6,East,83,3.3,3.2,80.2,0.0,,,0.0,,,n/a,2021-04-11T09:29:52Z
2021-04-11 11:34:53,15.5,12,1015.6,NW,314,4.4,2.3,80.1,0.0,,,0.0,,,n/a,2021-04-11T09:34:53Z
2021-04-11 11:39:55,15.4,11.9,1015.6,WNW,289,1.9,1,79.6,0.0,,,0.0,,,n/a,2021-04-11T09:39:55Z
2021-04-11 11:44:56,15.6,12,1015.6,NNE,24,1.9,0.6,79.1,0.0,,,0.0,,,n/a,2021-04-11T09:44:56Z
2021-04-11 11:49:57,15.7,12,1015.6,NNE,14,2.4,1.8,78.8,0.0,,,0.0,,,n/a,2021-04-11T09:49:57Z
2021-04-11 11:54:58,15.8,12.2,1015.6,SW,231,1,1.1,79,0.0,,,0.0,,,n/a,2021-04-11T09:54:58Z
2021-04-11 11:59:59,16,12.3,1015.6,WNW,302,1,0.5,78.7,0.0,,,0.0,,,n/a,2021-04-11T09:59:59Z
2021-04-11 12:04:51,16.3,12.5,1015.6,NNE,33,1.6,0.5,78,0.0,,,0.0,,,n/a,2021-04-11T10:04:51Z
2021-04-11 12:09:20,16.5,12.3,1015.6,SE,129,7.6,5.6,76.4,0.0,,,0.0,,,n/a,2021-04-11T10:09:20Z
2021-04-11 12:14:55,16.8,12.4,1015.5,East,85,3.6,5,75.5,0.0,,,0.0,,,n/a,2021-04-11T10:14:55Z
2021-04-11 12:19:56,16.7,12.2,1015.5,North,11,5.5,5.3,74.7,0.0,,,0.0,,,n/a,2021-04-11T10:19:56Z
2021-04-11 12:24:57,16.8,12.3,1015.5,NNW,344,4.4,3.4,75,0.0,,,0.0,,,n/a,2021-04-11T10:24:57Z
2021-04-11 12:29:58,16.8,12.3,1015.5,SE,142,4.5,3.4,74.7,0.0,,,0.0,,,n/a,2021-04-11T10:29:58Z
2021-04-11 12:34:59,16.9,12.1,1015.5,NW,326,2.1,1.3,73.8,0.0,,,0.0,,,n/a,2021-04-11T10:34:59Z
2021-04-11 12:39:50,16.8,11.9,1015.5,West,277,6.3,6,72.9,0.0,,,0.0,,,n/a,2021-04-11T10:39:50Z
2021-04-11 12:44:51,16.6,12,1015.4,SW,234,5.1,3.7,73.9,0.0,,,0.0,,,n/a,2021-04-11T10:44:51Z
2021-04-11 12:49:52,16.7,12,1015.4,WSW,253,5.3,3.4,74.2,0.0,,,0.0,,,n/a,2021-04-11T10:49:52Z
2021-04-11 12:54:53,16.8,12.3,1015.4,West,274,4.9,5.1,74.9,0.0,,,0.0,,,n/a,2021-04-11T10:54:53Z
2021-04-11 12:59:54,16.6,11.9,1015.4,West,278,4,3.5,73.8,0.0,,,0.0,,,n/a,2021-04-11T10:59:54Z
2021-04-11 13:04:58,16.8,12.4,1015.3,SSW,210,2.6,2.4,75.5,0.0,,,0.0,,,n/a,2021-04-11T11:04:58Z
2021-04-11 13:09:49,17,12.5,1015.3,SSE,165,1.4,1.1,74.7,0.0,,,0.0,,,n/a,2021-04-11T11:09:49Z
2021-04-11 13:14:50,17,12.3,1015.3,West,276,4,1.8,74,0.0,,,0.0,,,n/a,2021-04-11T11:14:50Z
2021-04-11 13:19:51,17,12.5,1015.3,WNW,284,2.3,0.6,74.6,0.0,,,0.0,,,n/a,2021-04-11T11:19:51Z
2021-04-11 13:20:02,17,12.6,1015.3,WSW,255,1.9,0.2,75,0.0,,,0.0,,,n/a,2021-04-11T11:20:02Z
2021-04-11 14:24:59,18.3,13.2,1015.0,West,266,6.4,2.7,72,0.0,,,0.0,,,n/a,2021-04-11T12:24:59Z
2021-04-11 14:29:15,18.3,12.8,1015.0,WNW,301,6.3,4.8,70,0.0,,,0.0,,,n/a,2021-04-11T12:29:15Z
2021-04-11 19:44:54,17,12.1,1015.2,South,188,1.9,0,73,0.0,,,0.0,,,n/a,2021-04-11T17:44:54Z
2021-04-11 19:49:55,17.1,12.5,1015.3,South,182,1,1,74.7,0.0,,,0.0,,,n/a,2021-04-11T17:49:55Z
2021-04-11 19:54:56,17.1,12.6,1015.3,SE,132,2.3,1.4,74.6,0.0,,,0.0,,,n/a,2021-04-11T17:54:56Z
2021-04-11 19:59:57,16.8,12.3,1015.4,SE,143,1.5,0.5,74.3,0.0,,,0.0,,,n/a,2021-04-11T17:59:57Z
2021-04-11 20:00:54,16.6,12.2,1015.4,SE,133,0,0,75,0.0,,,0.0,,,n/a,2021-04-11T18:00:54Z